Time;durP1;ratioP1;P1;durP2;ratioP2;P2;SDS_P1;SDS_P2;PMS_P1;PMS_P2;Temp;Humidity;BMP_temperature;BMP_pressure;BME280_temperature;BME280_humidity;BME280_pressure;Samples;Min_cycle;Max_cycle;Signal;HPM_P1;HPM_P2
2021/06/14 00:01:56;;;;;;;3.03;2.20;;;15.60;56.80;;;;;;5072504;28;20025;-79
2021/06/14 00:04:22;;;;;;;5.97;1.98;;;15.60;55.50;;;;;;5072357;28;20039;-79
2021/06/14 00:06:47;;;;;;;4.57;1.88;;;15.50;56.30;;;;;;5072594;28;20373;-79
2021/06/14 00:09:17;;;;;;;4.43;1.95;;;15.50;56.00;;;;;;5072091;28;20401;-79
2021/06/14 00:11:43;;;;;;;3.53;1.98;;;15.50;55.80;;;;;;5072447;28;20065;-79
2021/06/14 00:14:08;;;;;;;3.42;1.80;;;15.50;55.70;;;;;;5072362;28;20108;-79
2021/06/14 00:16:35;;;;;;;4.10;1.90;;;15.50;55.60;;;;;;5072544;28;20024;-78
2021/06/14 00:19:05;;;;;;;5.68;2.35;;;15.60;55.50;;;;;;5072253;28;20043;-78
2021/06/14 00:21:31;;;;;;;6.00;2.05;;;15.60;54.90;;;;;;5072477;28;20024;-79
2021/06/14 00:23:57;;;;;;;5.03;2.08;;;15.70;54.80;;;;;;5072204;28;20033;-78
2021/06/14 00:26:22;;;;;;;4.18;1.65;;;15.70;54.70;;;;;;5072355;28;20086;-78
2021/06/14 00:28:48;;;;;;;3.80;1.80;;;15.70;54.00;;;;;;5072300;28;20025;-78
2021/06/14 00:31:14;;;;;;;6.25;1.92;;;15.70;53.80;;;;;;5072088;28;20027;-78
2021/06/14 00:33:40;;;;;;;3.88;2.05;;;15.70;54.00;;;;;;5071047;28;20025;-78
2021/06/14 00:36:06;;;;;;;3.53;2.03;;;15.70;53.70;;;;;;5072410;28;20017;-78
2021/06/14 00:38:33;;;;;;;6.78;2.10;;;15.70;53.50;;;;;;5072235;28;20039;-79
2021/06/14 00:40:58;;;;;;;2.63;1.67;;;15.70;53.30;;;;;;5072294;28;20016;-79
2021/06/14 00:43:24;;;;;;;2.83;1.67;;;15.80;53.30;;;;;;5072070;28;20029;-78
2021/06/14 00:45:51;;;;;;;4.60;1.77;;;15.70;53.30;;;;;;5071944;28;20024;-80
2021/06/14 00:48:17;;;;;;;3.78;1.58;;;15.80;52.70;;;;;;5072073;28;20127;-79
2021/06/14 00:50:47;;;;;;;4.00;1.60;;;15.80;52.60;;;;;;5071839;28;20100;-80
2021/06/14 00:53:23;;;;;;;3.97;1.60;;;15.80;52.20;;;;;;5072422;28;20480;-80
2021/06/14 00:55:49;;;;;;;4.75;1.83;;;15.70;52.40;;;;;;5075692;28;20405;-80
2021/06/14 00:58:16;;;;;;;5.43;1.70;;;15.70;52.40;;;;;;5075830;28;20107;-80
2021/06/14 01:00:42;;;;;;;6.15;1.90;;;15.70;52.10;;;;;;5075794;28;20020;-80
2021/06/14 01:03:08;;;;;;;3.28;1.52;;;15.70;51.90;;;;;;5075586;28;20033;-79
2021/06/14 01:05:37;;;;;;;6.15;1.70;;;15.70;51.80;;;;;;5074453;28;20101;-79
2021/06/14 01:08:04;;;;;;;8.73;2.20;;;15.70;51.90;;;;;;5075522;28;20102;-79
2021/06/14 01:10:29;;;;;;;4.15;1.77;;;15.70;52.00;;;;;;5075859;28;20070;-79
2021/06/14 01:13:26;;;;;;;3.25;1.63;;;15.70;51.90;;;;;;5074260;28;20029;-79
2021/06/14 01:16:14;;;;;;;5.53;1.67;;;15.70;52.20;;;;;;5073388;28;20040;-79
2021/06/14 01:19:11;;;;;;;4.82;2.03;;;15.60;52.40;;;;;;5075152;28;20020;-79
2021/06/14 01:21:45;;;;;;;3.75;1.80;;;15.60;52.90;;;;;;5075469;28;20028;-78
2021/06/14 01:24:25;;;;;;;4.75;1.95;;;15.60;52.80;;;;;;5075103;28;20109;-78
2021/06/14 01:27:23;;;;;;;5.00;1.58;;;15.50;52.80;;;;;;5075195;28;20021;-78
2021/06/14 01:29:49;;;;;;;5.43;1.63;;;15.50;52.50;;;;;;5068723;28;20036;-79
2021/06/14 01:32:15;;;;;;;3.80;1.83;;;15.40;52.20;;;;;;5075087;28;20420;-79
2021/06/14 01:34:43;;;;;;;2.70;1.75;;;15.40;52.50;;;;;;5075041;28;20027;-79
2021/06/14 01:37:10;;;;;;;2.90;1.55;;;15.50;52.30;;;;;;5075072;28;20025;-79
2021/06/14 01:39:40;;;;;;;5.75;1.60;;;15.40;52.60;;;;;;5073724;28;20020;-79
2021/06/14 01:42:06;;;;;;;5.32;1.70;;;15.30;52.70;;;;;;5074914;28;20033;-79
2021/06/14 01:44:34;;;;;;;3.95;1.90;;;15.30;52.60;;;;;;5074913;28;20044;-79
2021/06/14 01:47:04;;;;;;;6.00;1.83;;;15.30;52.60;;;;;;5075094;28;20371;-79
2021/06/14 01:49:30;;;;;;;6.13;2.03;;;15.30;52.80;;;;;;5075049;28;20029;-79
2021/06/14 01:51:56;;;;;;;4.05;1.80;;;15.30;52.60;;;;;;5074962;28;20032;-79
2021/06/14 01:54:22;;;;;;;6.78;2.05;;;15.20;52.70;;;;;;5074719;28;20044;-79
2021/06/14 01:56:51;;;;;;;4.85;1.70;;;15.20;52.80;;;;;;5074776;28;20029;-79
2021/06/14 01:59:24;;;;;;;5.13;1.80;;;15.20;52.80;;;;;;5075030;28;20021;-79
2021/06/14 02:01:52;;;;;;;5.38;1.88;;;15.10;53.20;;;;;;5092254;28;20024;-78
2021/06/14 02:04:18;;;;;;;5.65;2.17;;;15.00;53.40;;;;;;5097684;28;20030;-78
2021/06/14 02:06:46;;;;;;;3.50;1.67;;;15.00;53.20;;;;;;5079696;28;20032;-80
2021/06/14 02:09:15;;;;;;;3.47;1.70;;;15.10;52.70;;;;;;5074448;28;20020;-79
2021/06/14 02:11:50;;;;;;;9.35;1.95;;;15.10;53.20;;;;;;5074524;28;20225;-79
2021/06/14 02:14:23;;;;;;;5.10;1.75;;;15.10;53.50;;;;;;5072667;28;20107;-79
2021/06/14 02:16:50;;;;;;;4.25;2.20;;;15.00;53.40;;;;;;5074393;28;20025;-78
2021/06/14 02:19:16;;;;;;;6.68;2.05;;;15.00;53.60;;;;;;5073902;28;20035;-79
2021/06/14 02:21:43;;;;;;;7.70;2.42;;;14.90;53.70;;;;;;5074168;28;20032;-79
2021/06/14 02:24:09;;;;;;;1.85;1.45;;;14.90;53.90;;;;;;5073871;28;20033;-79
2021/06/14 02:26:37;;;;;;;5.03;1.77;;;14.90;54.10;;;;;;5074166;28;20025;-79
2021/06/14 02:29:03;;;;;;;6.07;1.80;;;14.80;54.30;;;;;;5074027;28;20035;-79
2021/06/14 02:31:30;;;;;;;2.53;1.80;;;14.90;54.50;;;;;;5073966;28;20055;-79
2021/06/14 02:33:55;;;;;;;5.53;2.50;;;14.80;54.70;;;;;;5072691;28;20031;-79
2021/06/14 02:36:22;;;;;;;4.53;2.25;;;14.80;54.60;;;;;;5073873;28;20025;-79
2021/06/14 02:38:48;;;;;;;6.32;2.20;;;14.80;54.70;;;;;;5073867;28;20496;-79
2021/06/14 02:41:14;;;;;;;4.25;2.30;;;14.80;54.70;;;;;;5072579;28;20024;-79
2021/06/14 02:43:41;;;;;;;4.60;2.15;;;14.80;54.60;;;;;;5073705;28;20036;-80
2021/06/14 02:46:10;;;;;;;7.13;2.38;;;14.90;54.40;;;;;;5073623;28;20116;-79
2021/06/14 02:48:38;;;;;;;3.72;2.28;;;14.90;54.40;;;;;;5073497;28;20113;-80
2021/06/14 02:51:05;;;;;;;3.13;1.40;;;14.90;54.40;;;;;;5073424;28;20103;-79
2021/06/14 02:53:32;;;;;;;5.80;1.98;;;14.90;54.30;;;;;;5073576;28;20025;-80
2021/06/14 02:56:24;;;;;;;3.30;1.90;;;15.00;54.20;;;;;;5073502;28;20047;-79
2021/06/14 02:58:50;;;;;;;4.20;1.90;;;15.00;54.60;;;;;;5069608;28;20081;-81
2021/06/14 03:01:15;;;;;;;3.58;2.00;;;14.90;54.30;;;;;;5072083;28;20109;-79
2021/06/14 03:03:42;;;;;;;4.63;1.90;;;14.90;54.20;;;;;;5073383;28;20056;-79
2021/06/14 03:06:14;;;;;;;3.22;1.95;;;14.90;54.20;;;;;;5073237;28;20035;-79
2021/06/14 03:08:40;;;;;;;5.07;1.85;;;14.80;54.50;;;;;;5073126;28;20024;-80
2021/06/14 03:11:06;;;;;;;8.20;1.77;;;14.80;54.80;;;;;;5076809;28;20028;-84
2021/06/14 03:13:33;;;;;;;9.90;2.25;;;15.00;66.30;;;;;;5074095;28;20025;-85
2021/06/14 03:16:00;;;;;;;9.18;2.17;;;15.30;69.10;;;;;;5071566;28;20027;-83
2021/06/14 03:18:26;;;;;;;3.47;1.90;;;15.50;62.70;;;;;;5073233;28;20028;-84
2021/06/14 03:20:56;;;;;;;7.40;1.88;;;15.60;60.00;;;;;;5072067;28;20491;-83
2021/06/14 03:23:22;;;;;;;6.60;2.17;;;15.70;56.40;;;;;;5072931;28;20032;-84
2021/06/14 03:25:50;;;;;;;3.95;2.00;;;15.80;57.70;;;;;;5073230;28;20432;-84
2021/06/14 03:28:17;;;;;;;4.63;1.80;;;15.90;56.70;;;;;;5073107;28;20025;-84
2021/06/14 03:30:43;;;;;;;4.85;1.90;;;15.90;55.30;;;;;;5073193;28;20027;-82
2021/06/14 03:33:10;;;;;;;4.20;1.83;;;15.70;55.10;;;;;;5072842;28;20032;-83
2021/06/14 03:35:37;;;;;;;2.85;1.92;;;15.70;55.50;;;;;;5072964;28;20020;-82
2021/06/14 03:38:04;;;;;;;7.90;1.90;;;15.70;55.40;;;;;;5073030;28;20461;-83
2021/06/14 03:40:30;;;;;;;3.25;1.83;;;15.60;55.40;;;;;;5072921;28;20020;-78
2021/06/14 03:43:05;;;;;;;2.53;1.60;;;15.70;55.40;;;;;;5072513;28;20166;-78
2021/06/14 03:45:32;;;;;;;3.70;1.92;;;15.60;54.80;;;;;;5072568;28;20421;-78
2021/06/14 03:47:58;;;;;;;4.75;2.17;;;15.50;54.80;;;;;;5072834;28;20523;-79
2021/06/14 03:50:24;;;;;;;4.72;1.70;;;15.50;55.10;;;;;;5072875;28;20025;-79
2021/06/14 03:52:51;;;;;;;4.55;2.25;;;15.40;55.40;;;;;;5075465;28;20032;-79
2021/06/14 03:55:17;;;;;;;4.15;1.90;;;15.30;55.70;;;;;;5079923;28;20021;-80
2021/06/14 03:57:42;;;;;;;5.43;2.28;;;15.20;56.30;;;;;;5076097;28;20034;-77
2021/06/14 04:00:13;;;;;;;3.38;1.88;;;15.10;56.30;;;;;;5073298;28;20054;-78
2021/06/14 04:02:39;;;;;;;4.90;2.30;;;15.00;56.70;;;;;;5072522;28;20096;-78
2021/06/14 04:05:06;;;;;;;5.60;2.47;;;15.00;57.20;;;;;;5072563;28;20024;-79
2021/06/14 04:07:32;;;;;;;5.15;1.85;;;14.80;57.70;;;;;;5072291;28;20012;-77
2021/06/14 04:10:00;;;;;;;6.65;2.17;;;14.90;57.80;;;;;;5072294;28;20059;-78
2021/06/14 04:12:27;;;;;;;3.08;2.05;;;14.90;57.70;;;;;;5072373;28;20024;-79
2021/06/14 04:14:53;;;;;;;6.40;1.83;;;15.00;57.00;;;;;;5072072;28;20025;-78
2021/06/14 04:17:19;;;;;;;9.68;2.58;;;15.00;56.70;;;;;;5072234;28;20074;-77
2021/06/14 04:19:45;;;;;;;5.18;1.75;;;15.00;56.50;;;;;;5072294;28;20081;-77
2021/06/14 04:22:11;;;;;;;3.22;2.15;;;15.10;56.40;;;;;;5072107;28;20051;-78
2021/06/14 04:24:37;;;;;;;3.85;2.17;;;15.20;56.20;;;;;;5072138;28;20584;-78
2021/06/14 04:27:03;;;;;;;3.78;1.83;;;15.30;56.40;;;;;;5072160;28;20056;-79
2021/06/14 04:29:29;;;;;;;3.92;1.98;;;15.40;57.30;;;;;;5074647;28;20033;-79
2021/06/14 04:31:56;;;;;;;2.35;2.03;;;15.50;56.70;;;;;;5076153;28;20016;-79
2021/06/14 04:34:21;;;;;;;2.88;2.08;;;15.60;56.70;;;;;;5076347;28;20036;-79
2021/06/14 04:36:47;;;;;;;3.53;1.90;;;15.60;56.80;;;;;;5077322;28;20493;-80
2021/06/14 04:39:13;;;;;;;4.40;2.53;;;15.70;56.50;;;;;;5080317;28;20108;-80
2021/06/14 04:41:38;;;;;;;2.70;1.77;;;15.80;56.20;;;;;;5081638;28;20017;-81
2021/06/14 04:44:04;;;;;;;4.93;1.90;;;15.90;56.00;;;;;;5080504;28;20158;-81
2021/06/14 04:46:30;;;;;;;6.60;2.45;;;15.90;56.00;;;;;;5076679;28;20128;-81
2021/06/14 04:48:55;;;;;;;4.28;1.98;;;16.00;55.80;;;;;;5077560;28;20048;-81
2021/06/14 04:51:21;;;;;;;3.13;1.80;;;16.00;55.60;;;;;;5076662;28;20029;-77
2021/06/14 04:53:46;;;;;;;3.70;1.60;;;16.10;55.40;;;;;;5076487;28;20036;-77
2021/06/14 04:56:12;;;;;;;3.35;1.92;;;16.20;55.10;;;;;;5076328;28;20028;-78
2021/06/14 04:58:38;;;;;;;4.47;1.75;;;16.30;55.10;;;;;;5075870;28;20020;-77
2021/06/14 05:01:03;;;;;;;4.38;1.95;;;16.40;54.70;;;;;;5075931;28;20020;-77
2021/06/14 05:03:29;;;;;;;2.13;1.35;;;16.40;54.60;;;;;;5076654;28;20060;-82
2021/06/14 05:05:56;;;;;;;5.13;1.83;;;16.50;54.60;;;;;;5076169;28;20066;-81
2021/06/14 05:08:22;;;;;;;5.63;2.35;;;16.60;54.60;;;;;;5076002;28;20381;-82
2021/06/14 05:10:49;;;;;;;4.20;2.35;;;16.60;54.30;;;;;;5076015;28;20013;-81
2021/06/14 05:13:15;;;;;;;2.90;1.50;;;16.70;54.30;;;;;;5075822;28;20024;-83
2021/06/14 05:15:41;;;;;;;3.63;1.67;;;16.80;54.10;;;;;;5075912;28;20035;-81
2021/06/14 05:18:07;;;;;;;6.50;2.30;;;16.90;53.90;;;;;;5082080;28;20471;-81
2021/06/14 05:20:33;;;;;;;4.93;1.92;;;16.90;53.30;;;;;;5075516;28;20051;-81
2021/06/14 05:23:00;;;;;;;3.95;1.73;;;17.00;52.70;;;;;;5075607;28;20093;-81
2021/06/14 05:25:26;;;;;;;4.30;2.45;;;17.00;52.70;;;;;;5075692;28;20029;-81
2021/06/14 05:27:51;;;;;;;4.20;2.22;;;17.20;52.80;;;;;;5074001;28;20033;-77
2021/06/14 05:30:18;;;;;;;6.38;2.72;;;17.30;52.80;;;;;;5074898;28;20622;-77
2021/06/14 05:32:44;;;;;;;6.97;2.28;;;17.40;52.90;;;;;;5074857;28;20442;-77
2021/06/14 05:35:11;;;;;;;9.23;2.30;;;17.50;52.70;;;;;;5075297;28;20424;-79
2021/06/14 05:37:37;;;;;;;5.10;2.40;;;17.70;52.40;;;;;;5075249;28;20024;-77
2021/06/14 05:40:05;;;;;;;6.15;2.00;;;17.80;51.80;;;;;;5074226;28;20032;-77
2021/06/14 05:42:31;;;;;;;6.93;2.20;;;17.90;51.40;;;;;;5075111;28;20051;-76
2021/06/14 05:44:57;;;;;;;4.05;2.20;;;18.00;50.40;;;;;;5074992;28;20457;-77
2021/06/14 05:47:23;;;;;;;5.40;1.90;;;18.10;50.10;;;;;;5074730;28;20043;-77
2021/06/14 05:49:48;;;;;;;7.25;2.42;;;18.20;49.10;;;;;;5074765;28;20020;-77
2021/06/14 05:52:14;;;;;;;4.05;1.90;;;18.20;49.20;;;;;;5074875;28;20025;-76
2021/06/14 05:54:39;;;;;;;5.90;2.35;;;18.30;49.20;;;;;;5074856;28;20139;-78
2021/06/14 05:57:08;;;;;;;6.15;2.13;;;18.30;49.30;;;;;;5074744;28;20021;-79
2021/06/14 05:59:34;;;;;;;5.32;1.98;;;18.30;47.30;;;;;;5073708;28;20024;-78
2021/06/14 06:02:00;;;;;;;5.95;2.00;;;18.30;46.90;;;;;;5073118;28;20077;-78
2021/06/14 06:04:25;;;;;;;6.28;1.63;;;18.30;45.90;;;;;;5074413;28;20040;-78
2021/06/14 06:06:51;;;;;;;7.75;2.50;;;18.30;45.30;;;;;;5074605;28;20471;-82
2021/06/14 06:09:17;;;;;;;11.52;2.33;;;18.30;45.30;;;;;;5073440;28;20028;-82
2021/06/14 06:11:42;;;;;;;14.38;2.80;;;18.30;45.00;;;;;;5073129;28;20358;-78
2021/06/14 06:14:08;;;;;;;9.73;2.15;;;18.30;44.30;;;;;;5074449;28;20035;-78
2021/06/14 06:16:34;;;;;;;8.02;1.90;;;18.30;43.80;;;;;;5074434;28;20025;-78
2021/06/14 06:18:59;;;;;;;5.55;2.13;;;18.40;43.70;;;;;;5074236;28;20020;-78
2021/06/14 06:21:25;;;;;;;7.22;2.17;;;18.50;43.60;;;;;;5074405;28;20115;-78
2021/06/14 06:23:51;;;;;;;4.88;2.17;;;18.50;43.40;;;;;;5074039;28;20048;-78
2021/06/14 06:26:16;;;;;;;5.63;2.00;;;18.60;43.10;;;;;;5073531;28;20039;-79
2021/06/14 06:28:42;;;;;;;5.68;1.88;;;18.60;42.80;;;;;;5073600;28;20031;-80
2021/06/14 06:31:11;;;;;;;8.57;2.47;;;18.60;42.80;;;;;;5073850;28;20384;-80
2021/06/14 06:33:37;;;;;;;4.45;1.77;;;18.70;42.90;;;;;;5074317;28;20024;-79
2021/06/14 06:36:03;;;;;;;5.65;1.98;;;18.70;43.00;;;;;;5074185;28;20032;-78
2021/06/14 06:38:29;;;;;;;4.28;1.95;;;18.70;42.60;;;;;;5074138;28;20058;-79
2021/06/14 06:40:55;;;;;;;7.57;2.53;;;18.80;43.50;;;;;;5073910;28;20029;-78
2021/06/14 06:43:20;;;;;;;4.32;2.22;;;18.90;42.60;;;;;;5073701;28;20477;-78
2021/06/14 06:45:46;;;;;;;3.60;1.70;;;19.00;42.60;;;;;;5073996;28;20029;-79
2021/06/14 06:48:11;;;;;;;5.93;2.30;;;19.20;42.30;;;;;;5074298;28;20416;-79
2021/06/14 06:50:37;;;;;;;4.45;2.08;;;19.30;41.80;;;;;;5073950;28;20085;-78
2021/06/14 06:53:03;;;;;;;4.32;1.75;;;19.30;41.30;;;;;;5090944;28;20013;-80
2021/06/14 06:55:28;;;;;;;5.90;2.15;;;19.30;40.80;;;;;;5094142;28;20028;-79
2021/06/14 06:57:54;;;;;;;2.83;1.73;;;19.40;41.20;;;;;;5073946;28;20131;-78
2021/06/14 07:00:22;;;;;;;6.55;2.40;;;19.50;41.40;;;;;;5073935;28;20078;-79
2021/06/14 07:02:48;;;;;;;5.25;1.60;;;19.50;40.90;;;;;;5073634;28;20457;-79
2021/06/14 07:05:14;;;;;;;5.85;1.90;;;19.70;41.20;;;;;;5073476;28;20025;-79
2021/06/14 07:07:41;;;;;;;7.28;2.08;;;19.90;41.20;;;;;;5073716;28;20052;-78
2021/06/14 07:10:07;;;;;;;6.00;2.13;;;19.90;40.40;;;;;;5073715;28;20025;-79
2021/06/14 07:12:33;;;;;;;7.80;2.30;;;19.90;40.00;;;;;;5072392;28;20024;-82
2021/06/14 07:15:00;;;;;;;4.18;1.75;;;19.80;39.70;;;;;;5073343;28;20385;-79
2021/06/14 07:17:26;;;;;;;2.63;1.80;;;19.90;40.50;;;;;;5072192;28;20020;-80
2021/06/14 07:19:52;;;;;;;25.00;2.60;;;20.00;39.90;;;;;;5073453;28;20032;-80
2021/06/14 07:22:18;;;;;;;9.77;2.00;;;20.20;43.80;;;;;;5073317;28;20028;-81
2021/06/14 07:24:43;;;;;;;3.78;1.52;;;20.50;45.90;;;;;;5073224;28;20055;-80
2021/06/14 07:27:09;;;;;;;3.42;1.67;;;20.50;40.40;;;;;;5072140;28;20466;-78
2021/06/14 07:29:34;;;;;;;3.75;1.90;;;20.60;41.20;;;;;;5073403;28;20432;-79
2021/06/14 07:32:00;;;;;;;5.97;1.50;;;20.80;41.30;;;;;;5073189;28;20046;-80
2021/06/14 07:34:26;;;;;;;5.97;1.77;;;21.00;39.50;;;;;;5073366;28;20078;-78
2021/06/14 07:36:52;;;;;;;5.32;1.67;;;21.00;38.90;;;;;;5073302;28;20032;-78
2021/06/14 07:39:18;;;;;;;4.50;1.55;;;21.10;37.60;;;;;;5073043;28;20032;-81
2021/06/14 07:41:44;;;;;;;6.25;1.90;;;20.90;37.70;;;;;;5073208;28;20024;-81
2021/06/14 07:44:10;;;;;;;2.67;1.45;;;20.90;38.70;;;;;;5072970;28;20485;-82
2021/06/14 07:46:35;;;;;;;3.45;1.40;;;21.00;38.40;;;;;;5072896;28;20429;-81
2021/06/14 07:49:01;;;;;;;2.55;1.30;;;21.20;38.80;;;;;;5073212;28;20037;-81
2021/06/14 07:51:27;;;;;;;3.20;1.58;;;21.50;39.10;;;;;;5072746;28;20035;-82
2021/06/14 07:53:53;;;;;;;3.83;1.80;;;21.60;37.10;;;;;;5072861;28;20380;-81
2021/06/14 07:56:19;;;;;;;5.10;1.88;;;21.60;36.80;;;;;;5072892;28;20028;-82
2021/06/14 07:58:47;;;;;;;4.35;1.83;;;21.80;38.00;;;;;;5092490;28;20409;-79
2021/06/14 08:01:14;;;;;;;6.10;1.45;;;21.70;35.50;;;;;;5093046;28;20016;-81
2021/06/14 08:03:40;;;;;;;2.42;1.50;;;21.60;35.00;;;;;;5092451;28;20020;-80
2021/06/14 08:06:06;;;;;;;4.43;1.67;;;21.60;35.90;;;;;;5092982;28;20392;-80
2021/06/14 08:08:33;;;;;;;3.58;1.40;;;21.80;36.80;;;;;;5092994;28;20020;-80
2021/06/14 08:10:59;;;;;;;2.65;1.50;;;22.00;36.70;;;;;;5092832;28;20024;-80
2021/06/14 08:13:25;;;;;;;5.07;2.03;;;22.20;35.50;;;;;;5092793;28;20027;-82
2021/06/14 08:15:51;;;;;;;5.10;1.75;;;22.20;35.80;;;;;;5092783;28;20023;-80
2021/06/14 08:18:36;;;;;;;3.83;1.85;;;22.40;34.50;;;;;;5092776;28;20028;-79
2021/06/14 08:21:21;;;;;;;5.05;1.55;;;22.40;33.90;;;;;;5092848;28;20027;-81
2021/06/14 08:26:31;;;;;;;2.92;1.50;;;22.30;34.10;;;;;;5093994;28;20080;-77
2021/06/14 08:28:59;;;;;;;5.50;1.80;;;22.20;33.90;;;;;;5093301;28;20024;-79
2021/06/14 08:31:33;;;;;;;5.88;1.90;;;22.20;34.20;;;;;;5092744;28;20365;-79
2021/06/14 08:33:59;;;;;;;6.95;1.35;;;22.30;33.60;;;;;;5092878;28;20099;-80
2021/06/14 08:36:25;;;;;;;3.85;1.50;;;22.40;32.90;;;;;;5092698;28;20465;-79
2021/06/14 08:38:51;;;;;;;3.38;1.48;;;22.40;32.80;;;;;;5092731;28;20024;-78
2021/06/14 08:41:19;;;;;;;3.38;1.48;;;22.40;33.00;;;;;;5092447;28;20103;-80
2021/06/14 08:43:48;;;;;;;4.13;1.80;;;22.40;32.10;;;;;;5092773;28;20032;-80
2021/06/14 08:46:14;;;;;;;5.63;1.70;;;22.40;32.40;;;;;;5099336;28;20059;-78
2021/06/14 08:48:41;;;;;;;4.38;1.63;;;22.30;32.30;;;;;;5110237;28;20259;-77
2021/06/14 08:51:08;;;;;;;4.43;1.60;;;22.40;32.50;;;;;;5108323;28;20024;-79
2021/06/14 08:53:36;;;;;;;4.65;1.30;;;22.50;32.70;;;;;;5106592;28;20026;-78
2021/06/14 08:56:02;;;;;;;4.15;1.42;;;22.30;30.80;;;;;;5107794;28;20032;-79
2021/06/14 08:58:29;;;;;;;2.08;1.35;;;22.40;31.30;;;;;;5108058;28;20032;-77
2021/06/14 09:00:55;;;;;;;2.60;1.50;;;22.40;31.20;;;;;;5100699;28;20024;-79
2021/06/14 09:03:28;;;;;;;8.43;1.88;;;22.40;30.80;;;;;;5093950;28;20078;-79
2021/06/14 09:05:54;;;;;;;2.88;1.42;;;22.40;31.40;;;;;;5091038;28;20050;-80
2021/06/14 09:08:24;;;;;;;1.67;1.40;;;22.50;30.70;;;;;;5092534;28;20486;-80
2021/06/14 09:10:53;;;;;;;3.95;1.40;;;22.60;30.30;;;;;;5092557;28;20023;-80
2021/06/14 09:13:26;;;;;;;3.45;1.08;;;22.60;30.10;;;;;;5092633;28;20028;-79
2021/06/14 09:16:13;;;;;;;8.88;1.40;;;22.90;30.80;;;;;;5095983;28;20081;-79
2021/06/14 09:18:41;;;;;;;5.00;1.40;;;22.80;29.20;;;;;;5096004;28;20384;-79
2021/06/14 09:21:15;;;;;;;5.32;1.30;;;22.80;28.70;;;;;;5096041;28;20387;-79
2021/06/14 09:23:49;;;;;;;5.18;1.10;;;22.80;28.60;;;;;;5095966;28;20385;-77
2021/06/14 09:26:33;;;;;;;6.30;1.08;;;22.90;28.20;;;;;;5095385;28;20028;-78
2021/06/14 09:29:10;;;;;;;6.80;1.40;;;22.90;27.80;;;;;;5072452;28;20033;-76
2021/06/14 09:32:01;;;;;;;6.80;1.42;;;22.90;27.10;;;;;;5073475;28;20519;-76
2021/06/14 09:34:42;;;;;;;2.65;1.25;;;22.90;26.90;;;;;;5075504;28;20409;-77
2021/06/14 09:37:10;;;;;;;3.95;1.50;;;23.00;27.70;;;;;;5075210;28;20023;-76
2021/06/14 09:39:44;;;;;;;4.32;1.52;;;23.10;28.80;;;;;;5075341;28;20538;-77
2021/06/14 09:42:19;;;;;;;1.15;0.80;;;23.20;28.20;;;;;;5075142;28;20483;-78
2021/06/14 09:44:46;;;;;;;7.82;1.38;;;23.20;26.80;;;;;;5075053;28;20401;-77
2021/06/14 09:47:13;;;;;;;3.10;1.45;;;23.20;25.60;;;;;;5074969;28;20048;-80
2021/06/14 09:49:40;;;;;;;4.25;0.98;;;23.30;25.60;;;;;;5075449;28;20027;-80
2021/06/14 09:52:12;;;;;;;3.55;1.33;;;23.40;25.70;;;;;;5075213;28;20100;-81
2021/06/14 09:54:37;;;;;;;4.10;1.08;;;23.50;26.30;;;;;;5075205;28;20035;-79
2021/06/14 09:57:05;;;;;;;3.85;1.30;;;23.70;25.70;;;;;;5076336;28;20016;-78
2021/06/14 09:59:38;;;;;;;3.25;1.40;;;23.80;24.80;;;;;;5078567;28;20503;-77
2021/06/14 10:02:18;;;;;;;2.00;0.93;;;23.80;24.10;;;;;;5081230;28;20027;-80
2021/06/14 10:04:53;;;;;;;3.50;1.10;;;23.80;24.30;;;;;;5078440;28;20090;-77
2021/06/14 10:07:21;;;;;;;5.60;1.30;;;24.00;25.20;;;;;;5076819;28;20473;-77
2021/06/14 10:09:51;;;;;;;1.55;1.00;;;24.20;25.30;;;;;;5074876;28;20032;-76
2021/06/14 10:12:25;;;;;;;2.38;1.20;;;24.40;25.30;;;;;;5074929;28;20362;-76
2021/06/14 10:14:59;;;;;;;1.60;0.87;;;24.50;24.40;;;;;;5075185;28;20032;-75
2021/06/14 10:17:39;;;;;;;4.28;1.38;;;24.60;24.10;;;;;;5075298;28;20025;-79
2021/06/14 10:20:17;;;;;;;4.75;1.08;;;24.50;25.50;;;;;;5075226;28;20077;-78
2021/06/14 10:22:45;;;;;;;4.93;1.30;;;24.70;25.80;;;;;;5074797;28;20020;-77
2021/06/14 10:25:12;;;;;;;4.80;1.58;;;24.80;26.50;;;;;;5073037;28;20029;-76
2021/06/14 10:27:38;;;;;;;7.97;1.50;;;24.90;26.30;;;;;;5074639;28;20028;-77
2021/06/14 10:30:09;;;;;;;2.35;1.27;;;24.90;26.30;;;;;;5074433;28;20028;-77
2021/06/14 10:32:37;;;;;;;4.20;1.08;;;25.00;27.20;;;;;;5074994;28;20060;-79
2021/06/14 10:35:04;;;;;;;5.55;1.83;;;25.10;26.60;;;;;;5073935;28;20024;-78
2021/06/14 10:37:33;;;;;;;3.67;1.60;;;25.30;27.80;;;;;;5074370;28;20028;-77
2021/06/14 10:39:59;;;;;;;3.80;1.58;;;25.50;29.10;;;;;;5074165;28;20489;-77
2021/06/14 10:42:26;;;;;;;3.67;1.85;;;25.50;29.90;;;;;;5074289;28;20035;-77
2021/06/14 10:44:51;;;;;;;5.28;1.70;;;25.60;29.70;;;;;;5073932;28;20036;-76
2021/06/14 10:47:19;;;;;;;4.28;1.60;;;25.30;30.80;;;;;;5073867;28;20052;-78
2021/06/14 10:49:45;;;;;;;4.47;1.52;;;25.30;31.90;;;;;;5092008;28;20033;-75
2021/06/14 10:52:11;;;;;;;3.90;1.55;;;25.50;32.30;;;;;;5084773;28;20388;-79
2021/06/14 10:54:45;;;;;;;5.65;1.48;;;25.80;31.80;;;;;;5074589;28;20099;-79
2021/06/14 10:57:12;;;;;;;4.47;1.80;;;26.00;32.00;;;;;;5076290;28;20366;-80
2021/06/14 10:59:41;;;;;;;5.40;1.50;;;26.20;31.20;;;;;;5073401;28;20089;-79
2021/06/14 11:02:09;;;;;;;4.03;1.92;;;26.30;31.30;;;;;;5073533;28;20093;-80
2021/06/14 11:04:35;;;;;;;4.60;1.88;;;26.60;31.30;;;;;;5073061;28;20032;-79
2021/06/14 11:07:02;;;;;;;2.45;1.45;;;26.80;30.40;;;;;;5073482;28;20492;-79
2021/06/14 11:09:44;;;;;;;4.03;1.85;;;26.80;29.90;;;;;;5073302;28;20050;-78
2021/06/14 11:12:22;;;;;;;7.75;1.75;;;26.70;30.20;;;;;;5073336;28;20032;-78
2021/06/14 11:14:48;;;;;;;6.13;1.30;;;26.70;30.10;;;;;;5072138;28;20032;-79
2021/06/14 11:17:32;;;;;;;4.07;1.67;;;26.90;31.40;;;;;;5073226;28;20025;-79
2021/06/14 11:20:01;;;;;;;3.72;1.65;;;27.10;31.10;;;;;;5073280;28;20013;-79
2021/06/14 11:22:40;;;;;;;7.35;2.10;;;27.50;30.80;;;;;;5073170;28;20024;-79
2021/06/14 11:25:30;;;;;;;5.82;1.98;;;27.80;29.70;;;;;;5072865;28;20036;-79
2021/06/14 11:28:05;;;;;;;2.75;1.33;;;27.90;28.80;;;;;;5073287;28;20044;-80
2021/06/14 11:30:36;;;;;;;6.72;1.60;;;27.80;28.10;;;;;;5073577;28;20079;-80
2021/06/14 11:33:04;;;;;;;6.05;2.00;;;28.10;28.90;;;;;;5073578;28;20052;-79
2021/06/14 11:35:32;;;;;;;5.35;1.40;;;28.30;28.50;;;;;;5072989;28;20025;-82
2021/06/14 11:38:01;;;;;;;1.83;1.08;;;28.20;28.10;;;;;;5071456;28;20024;-77
2021/06/14 11:40:30;;;;;;;6.38;1.55;;;28.10;28.00;;;;;;5073006;28;20038;-79
2021/06/14 11:43:13;;;;;;;3.20;1.50;;;28.30;28.20;;;;;;5072797;28;20028;-79
2021/06/14 11:45:42;;;;;;;3.60;1.67;;;28.40;27.70;;;;;;5072854;28;20028;-81
2021/06/14 11:48:45;;;;;;;5.60;2.00;;;28.70;28.20;;;;;;5071255;28;20473;-79
2021/06/14 11:51:19;;;;;;;1.55;1.23;;;28.80;26.50;;;;;;5041376;28;20036;-78
2021/06/14 11:53:55;;;;;;;4.78;1.58;;;28.80;25.70;;;;;;5072706;28;20473;-78
2021/06/14 11:56:22;;;;;;;2.85;1.48;;;28.80;25.90;;;;;;5072422;28;20036;-78
2021/06/14 11:58:52;;;;;;;5.93;1.20;;;28.90;26.50;;;;;;5072538;28;20027;-79
2021/06/14 12:01:26;;;;;;;2.28;1.48;;;29.10;27.70;;;;;;5072699;28;20363;-78
2021/06/14 12:03:56;;;;;;;2.80;1.45;;;29.20;26.80;;;;;;5072740;28;20120;-78
2021/06/14 12:06:23;;;;;;;3.28;1.40;;;29.40;26.80;;;;;;5072711;28;20435;-78
2021/06/14 12:08:49;;;;;;;7.10;1.58;;;29.60;26.50;;;;;;5072902;28;20526;-78
2021/06/14 12:11:15;;;;;;;2.70;1.10;;;29.80;26.50;;;;;;5072647;28;20028;-79
2021/06/14 12:13:41;;;;;;;3.72;1.15;;;29.90;25.70;;;;;;5072756;28;20096;-79
2021/06/14 12:16:07;;;;;;;3.45;1.33;;;30.10;25.90;;;;;;5072657;28;20113;-79
2021/06/14 12:18:32;;;;;;;4.07;1.30;;;30.00;24.90;;;;;;5072710;28;20047;-79
2021/06/14 12:21:08;;;;;;;3.33;1.40;;;30.00;24.80;;;;;;5072755;28;20413;-78
2021/06/14 12:23:38;;;;;;;5.30;1.40;;;30.10;24.40;;;;;;5072821;28;20032;-79
2021/06/14 12:26:13;;;;;;;4.72;1.50;;;29.90;23.90;;;;;;5072391;28;20038;-79
2021/06/14 12:28:40;;;;;;;2.40;1.55;;;29.70;24.10;;;;;;5072635;28;20025;-80
2021/06/14 12:31:12;;;;;;;3.58;1.27;;;29.90;24.70;;;;;;5072570;28;20025;-83
2021/06/14 12:33:40;;;;;;;5.03;1.50;;;30.20;25.60;;;;;;5072426;28;20025;-83
2021/06/14 12:36:08;;;;;;;3.13;1.40;;;30.20;24.50;;;;;;5072484;28;20029;-80
2021/06/14 12:38:34;;;;;;;3.22;1.05;;;29.90;23.40;;;;;;5072311;28;20020;-83
2021/06/14 12:41:02;;;;;;;3.13;1.38;;;30.00;23.90;;;;;;5072854;28;20103;-85
2021/06/14 12:43:36;;;;;;;2.70;1.45;;;30.10;23.60;;;;;;5073853;28;20036;-83
2021/06/14 12:46:02;;;;;;;2.60;1.60;;;29.90;23.70;;;;;;5072812;28;20055;-85
2021/06/14 12:48:28;;;;;;;4.43;1.30;;;30.10;24.80;;;;;;5073063;28;20353;-83
2021/06/14 12:50:56;;;;;;;2.78;1.50;;;30.30;24.00;;;;;;5076250;28;20027;-84
2021/06/14 12:53:24;;;;;;;1.95;1.25;;;30.50;23.90;;;;;;5076079;28;20397;-83
2021/06/14 12:55:52;;;;;;;2.70;1.20;;;30.50;22.90;;;;;;5076634;28;20047;-83